Dobrodošli na spletni strani vremenske postaje Senovo. Vse informacije so informativnega značaja, saj vremenska postaja ni del državne mreže meteoroloških postaj. AKTUALNIH OBVESTIL NI.


Posebna pozornost v zvezi z vremenskimi dogajanji ni potrebna.    Posebna pozornost v zvezi z vremenskimi dogajanji ni potrebna.

Pogled proti Armezu več informacij Pogled proti Armezu


Lisca več informacij Lisca


Radar strel več informacij blitzortung!


Radar padavin več informacij rain snow radar


Obiščite še:

Template documentation
and downloads

And another site



Weather Underground, zgodovina - Tekstovno

Dnevni povzetek za Januar 24, 2018 Enote:  Obe    Angleško   Metrično
« Predhodni Dan
Naslednji Dan »
Dnevni Tedenski Mesečni Letni Po meri
  Višja: Nižja: Povprečje:
Temperatura: TemperatureC °F /  -17.8 °C -4.5 °F /  -20.3 °C 0.4 °F /  -17.6 °C
Točka rosišča: DewpointC °F /  -17.8 °C -5.9 °F /  -21.1 °C -2.1 °F /  -18.9 °C
Vlažnost: Humidity % 63 % 84 %
Hitrost vetra: WindSpeedKMH mph /  0 km/h - 0.9 mph /  1.4 km/h
Sunki vetra: WindSpeedGustKMH mph /  0 km/h - -
Veter:- - SSW
Zračni tlak: PressurehPa in /  0 hPa 1026.0 in /  34740.4 hPa -
Padavine: 0.0 in /  0 mm    
Historical Graphs
 
 
Tabelarni podarki za Januar 24, 2018
Čas Temperatura Točka rosišča Zračni tlak Veter Hitrost vetra Sunki vetra Vlažnost Intenziteta padavin (urna)
TemperatureC °F /  -17.8 °C DewpointC °F /  -17.8 °C PressurehPa in /  0 hPa Calm     Humidity % HourlyPrecipMM in /  0 mm
00:04 -2.9 °F /  -19.4 °C -5.1 °F /  -20.6 °C 1029.0 in /  34841.9 hPa Calm     85 % 0.0 in /  0 mm
00:09 -2.9 °F /  -19.4 °C -5.1 °F /  -20.6 °C 1029.0 in /  34841.9 hPa Calm     85 % 0.0 in /  0 mm
00:14 -3.0 °F /  -19.4 °C -5.2 °F /  -20.7 °C 1029.0 in /  34841.9 hPa Calm     85 % 0.0 in /  0 mm
00:19 -3.0 °F /  -19.4 °C -5.2 °F /  -20.7 °C 1029.0 in /  34841.9 hPa Calm     85 % 0.0 in /  0 mm
00:24 -3.0 °F /  -19.4 °C -5.2 °F /  -20.7 °C 1029.0 in /  34841.9 hPa Calm     85 % 0.0 in /  0 mm
00:29 -3.0 °F /  -19.4 °C -5.2 °F /  -20.7 °C 1029.0 in /  34841.9 hPa Calm     85 % 0.0 in /  0 mm
00:34 -3.1 °F /  -19.5 °C -5.1 °F /  -20.6 °C 1029.0 in /  34841.9 hPa Calm     86 % 0.0 in /  0 mm
00:39 -3.1 °F /  -19.5 °C -5.1 °F /  -20.6 °C 1029.0 in /  34841.9 hPa Calm     86 % 0.0 in /  0 mm
00:49 -3.1 °F /  -19.5 °C -5.1 °F /  -20.6 °C 1030.0 in /  34875.8 hPa Calm     86 % 0.0 in /  0 mm
00:54 -3.0 °F /  -19.4 °C -5.0 °F /  -20.6 °C 1030.0 in /  34875.8 hPa Calm     86 % 0.0 in /  0 mm
00:59 -2.9 °F /  -19.4 °C -4.9 °F /  -20.5 °C 1029.0 in /  34841.9 hPa Calm     86 % 0.0 in /  0 mm
01:09 -3.0 °F /  -19.4 °C -5.0 °F /  -20.6 °C 1029.0 in /  34841.9 hPa Calm     86 % 0.0 in /  0 mm
01:19 -2.9 °F /  -19.4 °C -4.9 °F /  -20.5 °C 1029.0 in /  34841.9 hPa Calm     86 % 0.0 in /  0 mm
01:24 -2.9 °F /  -19.4 °C -4.9 °F /  -20.5 °C 1029.0 in /  34841.9 hPa Calm     86 % 0.0 in /  0 mm
01:34 -2.8 °F /  -19.3 °C -4.7 °F /  -20.4 °C 1029.0 in /  34841.9 hPa Calm     87 % 0.0 in /  0 mm
01:44 -2.6 °F /  -19.2 °C -4.4 °F /  -20.2 °C 1029.0 in /  34841.9 hPa Calm     87 % 0.0 in /  0 mm
01:49 -2.5 °F /  -19.2 °C -4.4 °F /  -20.2 °C 1029.0 in /  34841.9 hPa Calm     87 % 0.0 in /  0 mm
01:54 -2.5 °F /  -19.2 °C -4.4 °F /  -20.2 °C 1029.0 in /  34841.9 hPa Calm     87 % 0.0 in /  0 mm
01:59 -2.5 °F /  -19.2 °C -4.4 °F /  -20.2 °C 1029.0 in /  34841.9 hPa Calm     87 % 0.0 in /  0 mm
02:09 -2.6 °F /  -19.2 °C -4.3 °F /  -20.2 °C 1029.0 in /  34841.9 hPa Calm     88 % 0.0 in /  0 mm
02:14 -2.6 °F /  -19.2 °C -4.3 °F /  -20.2 °C 1029.0 in /  34841.9 hPa Calm     88 % 0.0 in /  0 mm
02:19 -2.7 °F /  -19.3 °C -4.4 °F /  -20.2 °C 1029.0 in /  34841.9 hPa Calm     88 % 0.0 in /  0 mm
02:24 -2.7 °F /  -19.3 °C -4.4 °F /  -20.2 °C 1029.0 in /  34841.9 hPa Calm     88 % 0.0 in /  0 mm
02:29 -2.8 °F /  -19.3 °C -4.5 °F /  -20.3 °C 1030.0 in /  34875.8 hPa Calm     88 % 0.0 in /  0 mm
02:39 -2.9 °F /  -19.4 °C -4.6 °F /  -20.3 °C 1030.0 in /  34875.8 hPa Calm     88 % 0.0 in /  0 mm
02:44 -3.0 °F /  -19.4 °C -4.7 °F /  -20.4 °C 1029.0 in /  34841.9 hPa Calm     88 % 0.0 in /  0 mm
02:49 -3.0 °F /  -19.4 °C -4.7 °F /  -20.4 °C 1029.0 in /  34841.9 hPa Calm     88 % 0.0 in /  0 mm
02:54 -3.1 °F /  -19.5 °C -4.8 °F /  -20.4 °C 1029.0 in /  34841.9 hPa Calm     88 % 0.0 in /  0 mm
02:59 -3.1 °F /  -19.5 °C -4.8 °F /  -20.4 °C 1029.0 in /  34841.9 hPa Calm     88 % 0.0 in /  0 mm
03:04 -3.1 °F /  -19.5 °C -4.8 °F /  -20.4 °C 1029.0 in /  34841.9 hPa Calm     88 % 0.0 in /  0 mm
03:09 -3.2 °F /  -19.6 °C -4.9 °F /  -20.5 °C 1029.0 in /  34841.9 hPa Calm     88 % 0.0 in /  0 mm
03:14 -3.2 °F /  -19.6 °C -4.9 °F /  -20.5 °C 1028.0 in /  34808.1 hPa Calm     88 % 0.0 in /  0 mm
03:19 -3.2 °F /  -19.6 °C -4.9 °F /  -20.5 °C 1028.0 in /  34808.1 hPa Calm     88 % 0.0 in /  0 mm
03:29 -3.2 °F /  -19.6 °C -4.9 °F /  -20.5 °C 1028.0 in /  34808.1 hPa Calm     88 % 0.0 in /  0 mm
03:34 -3.2 °F /  -19.6 °C -4.8 °F /  -20.4 °C 1028.0 in /  34808.1 hPa Calm     89 % 0.0 in /  0 mm
03:39 -3.3 °F /  -19.6 °C -4.8 °F /  -20.4 °C 1028.0 in /  34808.1 hPa Calm     89 % 0.0 in /  0 mm
03:49 -3.3 °F /  -19.6 °C -4.8 °F /  -20.4 °C 1029.0 in /  34841.9 hPa Calm     89 % 0.0 in /  0 mm
03:54 -3.3 °F /  -19.6 °C -4.8 °F /  -20.4 °C 1029.0 in /  34841.9 hPa Calm     89 % 0.0 in /  0 mm
03:59 -3.3 °F /  -19.6 °C -4.8 °F /  -20.4 °C 1029.0 in /  34841.9 hPa Calm     89 % 0.0 in /  0 mm
04:04 -3.4 °F /  -19.7 °C -4.9 °F /  -20.5 °C 1029.0 in /  34841.9 hPa Calm     89 % 0.0 in /  0 mm
04:09 -3.4 °F /  -19.7 °C -4.9 °F /  -20.5 °C 1029.0 in /  34841.9 hPa Calm     89 % 0.0 in /  0 mm
04:14 -3.4 °F /  -19.7 °C -4.9 °F /  -20.5 °C 1029.0 in /  34841.9 hPa Calm     89 % 0.0 in /  0 mm
04:19 -3.4 °F /  -19.7 °C -4.9 °F /  -20.5 °C 1029.0 in /  34841.9 hPa Calm     89 % 0.0 in /  0 mm
04:24 -3.5 °F /  -19.7 °C -5.1 °F /  -20.6 °C 1029.0 in /  34841.9 hPa Calm     89 % 0.0 in /  0 mm
04:29 -3.5 °F /  -19.7 °C -5.1 °F /  -20.6 °C 1029.0 in /  34841.9 hPa Calm     89 % 0.0 in /  0 mm
04:34 -3.5 °F /  -19.7 °C -5.1 °F /  -20.6 °C 1029.0 in /  34841.9 hPa Calm     89 % 0.0 in /  0 mm
04:39 -3.6 °F /  -19.8 °C -5.2 °F /  -20.7 °C 1029.0 in /  34841.9 hPa Calm     89 % 0.0 in /  0 mm
04:44 -3.6 °F /  -19.8 °C -5.2 °F /  -20.7 °C 1028.0 in /  34808.1 hPa Calm     89 % 0.0 in /  0 mm
04:49 -3.7 °F /  -19.8 °C -5.2 °F /  -20.7 °C 1028.0 in /  34808.1 hPa Calm     89 % 0.0 in /  0 mm
04:54 -3.7 °F /  -19.8 °C -5.2 °F /  -20.7 °C 1028.0 in /  34808.1 hPa Calm     89 % 0.0 in /  0 mm
04:59 -3.7 °F /  -19.8 °C -5.2 °F /  -20.7 °C 1028.0 in /  34808.1 hPa Calm     89 % 0.0 in /  0 mm
05:04 -3.8 °F /  -19.9 °C -5.3 °F /  -20.7 °C 1028.0 in /  34808.1 hPa Calm     89 % 0.0 in /  0 mm
05:09 -3.8 °F /  -19.9 °C -5.3 °F /  -20.7 °C 1028.0 in /  34808.1 hPa Calm     89 % 0.0 in /  0 mm
05:19 -3.9 °F /  -19.9 °C -5.4 °F /  -20.8 °C 1028.0 in /  34808.1 hPa Calm     89 % 0.0 in /  0 mm
05:24 -3.9 °F /  -19.9 °C -5.4 °F /  -20.8 °C 1028.0 in /  34808.1 hPa Calm     89 % 0.0 in /  0 mm
05:29 -3.9 °F /  -19.9 °C -5.4 °F /  -20.8 °C 1029.0 in /  34841.9 hPa Calm     89 % 0.0 in /  0 mm
05:34 -4.0 °F /  -20 °C -5.4 °F /  -20.8 °C 1029.0 in /  34841.9 hPa Calm     90 % 0.0 in /  0 mm
05:44 -4.0 °F /  -20 °C -5.4 °F /  -20.8 °C 1028.0 in /  34808.1 hPa Calm     90 % 0.0 in /  0 mm
05:49 -4.1 °F /  -20.1 °C -5.5 °F /  -20.8 °C 1028.0 in /  34808.1 hPa Calm     90 % 0.0 in /  0 mm
05:54 -4.1 °F /  -20.1 °C -5.5 °F /  -20.8 °C 1028.0 in /  34808.1 hPa Calm     90 % 0.0 in /  0 mm
05:59 -4.1 °F /  -20.1 °C -5.5 °F /  -20.8 °C 1029.0 in /  34841.9 hPa Calm     90 % 0.0 in /  0 mm
06:04 -4.1 °F /  -20.1 °C -5.5 °F /  -20.8 °C 1029.0 in /  34841.9 hPa Calm     90 % 0.0 in /  0 mm
06:09 -4.1 °F /  -20.1 °C -5.5 °F /  -20.8 °C 1029.0 in /  34841.9 hPa Calm     90 % 0.0 in /  0 mm
06:14 -4.2 °F /  -20.1 °C -5.6 °F /  -20.9 °C 1029.0 in /  34841.9 hPa Calm     90 % 0.0 in /  0 mm
06:19 -4.2 °F /  -20.1 °C -5.6 °F /  -20.9 °C 1029.0 in /  34841.9 hPa Calm     90 % 0.0 in /  0 mm
06:24 -4.2 °F /  -20.1 °C -5.6 °F /  -20.9 °C 1029.0 in /  34841.9 hPa Calm     90 % 0.0 in /  0 mm
06:29 -4.2 °F /  -20.1 °C -5.6 °F /  -20.9 °C 1029.0 in /  34841.9 hPa NNW 0.2 mph /  0.3 km/h 2.6 mph /  4.2 km/h 90 % 0.0 in /  0 mm
06:39 -4.2 °F /  -20.1 °C -5.6 °F /  -20.9 °C 1029.0 in /  34841.9 hPa Calm     90 % 0.0 in /  0 mm
06:44 -4.3 °F /  -20.2 °C -5.7 °F /  -20.9 °C 1029.0 in /  34841.9 hPa Calm     90 % 0.0 in /  0 mm
06:49 -4.3 °F /  -20.2 °C -5.7 °F /  -20.9 °C 1029.0 in /  34841.9 hPa Calm     90 % 0.0 in /  0 mm
06:54 -4.3 °F /  -20.2 °C -5.7 °F /  -20.9 °C 1029.0 in /  34841.9 hPa Calm     90 % 0.0 in /  0 mm
06:59 -4.3 °F /  -20.2 °C -5.7 °F /  -20.9 °C 1029.0 in /  34841.9 hPa Calm     90 % 0.0 in /  0 mm
07:04 -4.3 °F /  -20.2 °C -5.7 °F /  -20.9 °C 1029.0 in /  34841.9 hPa Calm     90 % 0.0 in /  0 mm
07:09 -4.4 °F /  -20.2 °C -5.8 °F /  -21 °C 1029.0 in /  34841.9 hPa Calm     90 % 0.0 in /  0 mm
07:14 -4.4 °F /  -20.2 °C -5.8 °F /  -21 °C 1030.0 in /  34875.8 hPa Calm     90 % 0.0 in /  0 mm
07:24 -4.5 °F /  -20.3 °C -5.9 °F /  -21.1 °C 1030.0 in /  34875.8 hPa Calm     90 % 0.0 in /  0 mm
07:29 -4.5 °F /  -20.3 °C -5.9 °F /  -21.1 °C 1029.0 in /  34841.9 hPa Calm     90 % 0.0 in /  0 mm
07:34 -4.5 °F /  -20.3 °C -5.9 °F /  -21.1 °C 1029.0 in /  34841.9 hPa Calm     90 % 0.0 in /  0 mm
07:39 -4.5 °F /  -20.3 °C -5.9 °F /  -21.1 °C 1029.0 in /  34841.9 hPa Calm     90 % 0.0 in /  0 mm
07:44 -4.5 °F /  -20.3 °C -5.9 °F /  -21.1 °C 1028.0 in /  34808.1 hPa Calm     90 % 0.0 in /  0 mm
07:54 -4.5 °F /  -20.3 °C -5.9 °F /  -21.1 °C 1028.0 in /  34808.1 hPa Calm     90 % 0.0 in /  0 mm
07:59 -4.5 °F /  -20.3 °C -5.9 °F /  -21.1 °C 1029.0 in /  34841.9 hPa Calm     90 % 0.0 in /  0 mm
08:09 -4.5 °F /  -20.3 °C -5.9 °F /  -21.1 °C 1029.0 in /  34841.9 hPa Calm     90 % 0.0 in /  0 mm
08:14 -4.5 °F /  -20.3 °C -5.9 °F /  -21.1 °C 1029.0 in /  34841.9 hPa Calm     90 % 0.0 in /  0 mm
08:24 -4.3 °F /  -20.2 °C -5.7 °F /  -20.9 °C 1029.0 in /  34841.9 hPa WNW 0.2 mph /  0.3 km/h 2.6 mph /  4.2 km/h 90 % 0.0 in /  0 mm
08:34 -4.1 °F /  -20.1 °C -5.5 °F /  -20.8 °C 1029.0 in /  34841.9 hPa WNW 0.3 mph /  0.5 km/h 1.8 mph /  2.9 km/h 90 % 0.0 in /  0 mm
08:49 -3.7 °F /  -19.8 °C -5.1 °F /  -20.6 °C 1029.0 in /  34841.9 hPa Calm     90 % 0.0 in /  0 mm
08:54 -3.6 °F /  -19.8 °C -5.0 °F /  -20.6 °C 1029.0 in /  34841.9 hPa Calm     90 % 0.0 in /  0 mm
09:04 -3.2 °F /  -19.6 °C -4.4 °F /  -20.2 °C 1029.0 in /  34841.9 hPa Calm     91 % 0.0 in /  0 mm
09:09 -3.1 °F /  -19.5 °C -4.4 °F /  -20.2 °C 1029.0 in /  34841.9 hPa Calm     91 % 0.0 in /  0 mm
09:14 -2.9 °F /  -19.4 °C -4.2 °F /  -20.1 °C 1029.0 in /  34841.9 hPa Calm   1.8 mph /  2.9 km/h 91 % 0.0 in /  0 mm
09:19 -2.7 °F /  -19.3 °C -3.9 °F /  -19.9 °C 1029.0 in /  34841.9 hPa SE 0.2 mph /  0.3 km/h 2.1 mph /  3.4 km/h 91 % 0.0 in /  0 mm
09:29 -2.3 °F /  -19.1 °C -3.6 °F /  -19.8 °C 1029.0 in /  34841.9 hPa SE 1.3 mph /  2.1 km/h 2.6 mph /  4.2 km/h 91 % 0.0 in /  0 mm
09:34 -2.0 °F /  -18.9 °C -3.3 °F /  -19.6 °C 1029.0 in /  34841.9 hPa SE 0.3 mph /  0.5 km/h 2.1 mph /  3.4 km/h 91 % 0.0 in /  0 mm
09:39 -1.9 °F /  -18.8 °C -3.2 °F /  -19.6 °C 1029.0 in /  34841.9 hPa Calm     91 % 0.0 in /  0 mm
09:44 -1.6 °F /  -18.7 °C -2.9 °F /  -19.4 °C 1029.0 in /  34841.9 hPa Calm     91 % 0.0 in /  0 mm
09:49 -1.4 °F /  -18.6 °C -2.6 °F /  -19.2 °C 1029.0 in /  34841.9 hPa Calm   1.8 mph /  2.9 km/h 92 % 0.0 in /  0 mm
09:54 -1.2 °F /  -18.4 °C -2.3 °F /  -19.1 °C 1029.0 in /  34841.9 hPa SSE 0.3 mph /  0.5 km/h 2.6 mph /  4.2 km/h 92 % 0.0 in /  0 mm
10:04 -0.7 °F /  -18.2 °C -1.8 °F /  -18.8 °C 1029.0 in /  34841.9 hPa SSE 1.6 mph /  2.6 km/h 3.2 mph /  5.1 km/h 92 % 0.0 in /  0 mm
10:09 -0.5 °F /  -18.1 °C -1.7 °F /  -18.7 °C 1029.0 in /  34841.9 hPa SSE 1.3 mph /  2.1 km/h 2.6 mph /  4.2 km/h 92 % 0.0 in /  0 mm
10:14 -0.2 °F /  -17.9 °C -1.3 °F /  -18.5 °C 1028.0 in /  34808.1 hPa SE 1.1 mph /  1.8 km/h 3.5 mph /  5.6 km/h 92 % 0.0 in /  0 mm
10:24 0.3 °F /  -17.6 °C -0.7 °F /  -18.2 °C 1028.0 in /  34808.1 hPa SSE 1.6 mph /  2.6 km/h 3.5 mph /  5.6 km/h 93 % 0.0 in /  0 mm
10:29 0.6 °F /  -17.4 °C -0.4 °F /  -18 °C 1028.0 in /  34808.1 hPa SSE 1.8 mph /  2.9 km/h 3.5 mph /  5.6 km/h 93 % 0.0 in /  0 mm
10:34 0.8 °F /  -17.3 °C -0.2 °F /  -17.9 °C 1028.0 in /  34808.1 hPa SE 1.9 mph /  3.1 km/h 4.7 mph /  7.6 km/h 93 % 0.0 in /  0 mm
10:39 1.0 °F /  -17.2 °C 0.0 °F /  -17.8 °C 1028.0 in /  34808.1 hPa SE 2.7 mph /  4.3 km/h 4.7 mph /  7.6 km/h 93 % 0.0 in /  0 mm
10:44 1.3 °F /  -17.1 °C 0.4 °F /  -17.6 °C 1029.0 in /  34841.9 hPa SE 3.1 mph /  5 km/h 4.7 mph /  7.6 km/h 94 % 0.0 in /  0 mm
10:49 1.6 °F /  -16.9 °C 0.7 °F /  -17.4 °C 1029.0 in /  34841.9 hPa SE 1.9 mph /  3.1 km/h 4.7 mph /  7.6 km/h 94 % 0.0 in /  0 mm
10:54 1.9 °F /  -16.7 °C 1.1 °F /  -17.2 °C 1029.0 in /  34841.9 hPa ESE 1.9 mph /  3.1 km/h 5.0 mph /  8 km/h 94 % 0.0 in /  0 mm
10:59 2.2 °F /  -16.6 °C 1.3 °F /  -17.1 °C 1029.0 in /  34841.9 hPa SE 2.6 mph /  4.2 km/h 5.0 mph /  8 km/h 94 % 0.0 in /  0 mm
11:04 2.5 °F /  -16.4 °C 1.6 °F /  -16.9 °C 1029.0 in /  34841.9 hPa SE 2.3 mph /  3.7 km/h 4.7 mph /  7.6 km/h 94 % 0.0 in /  0 mm
11:09 2.7 °F /  -16.3 °C 1.8 °F /  -16.8 °C 1029.0 in /  34841.9 hPa ESE 3.2 mph /  5.1 km/h 4.7 mph /  7.6 km/h 94 % 0.0 in /  0 mm
11:14 3.1 °F /  -16.1 °C 2.2 °F /  -16.6 °C 1029.0 in /  34841.9 hPa SE 3.7 mph /  6 km/h 4.7 mph /  7.6 km/h 94 % 0.0 in /  0 mm
11:19 3.3 °F /  -15.9 °C 2.4 °F /  -16.4 °C 1029.0 in /  34841.9 hPa SE 3.9 mph /  6.3 km/h 6.9 mph /  11.1 km/h 94 % 0.0 in /  0 mm
11:24 3.5 °F /  -15.8 °C 2.6 °F /  -16.3 °C 1029.0 in /  34841.9 hPa SSE 4.8 mph /  7.7 km/h 7.9 mph /  12.7 km/h 94 % 0.0 in /  0 mm
11:29 3.6 °F /  -15.8 °C 2.7 °F /  -16.3 °C 1029.0 in /  34841.9 hPa SSE 4.7 mph /  7.6 km/h 7.9 mph /  12.7 km/h 94 % 0.0 in /  0 mm
11:34 3.9 °F /  -15.6 °C 3.0 °F /  -16.1 °C 1029.0 in /  34841.9 hPa SSE 3.9 mph /  6.3 km/h 5.8 mph /  9.3 km/h 94 % 0.0 in /  0 mm
11:39 4.1 °F /  -15.5 °C 3.2 °F /  -16 °C 1029.0 in /  34841.9 hPa SSE 3.4 mph /  5.5 km/h 5.8 mph /  9.3 km/h 94 % 0.0 in /  0 mm
11:44 4.7 °F /  -15.2 °C 3.8 °F /  -15.7 °C 1029.0 in /  34841.9 hPa SSE 2.7 mph /  4.3 km/h 4.7 mph /  7.6 km/h 94 % 0.0 in /  0 mm
11:49 5.0 °F /  -15 °C 4.1 °F /  -15.5 °C 1029.0 in /  34841.9 hPa SE 2.3 mph /  3.7 km/h 4.7 mph /  7.6 km/h 94 % 0.0 in /  0 mm
11:54 5.1 °F /  -14.9 °C 4.2 °F /  -15.4 °C 1029.0 in /  34841.9 hPa SE 2.9 mph /  4.7 km/h 5.0 mph /  8 km/h 94 % 0.0 in /  0 mm
11:59 5.6 °F /  -14.7 °C 4.7 °F /  -15.2 °C 1029.0 in /  34841.9 hPa SE 3.7 mph /  6 km/h 5.5 mph /  8.9 km/h 94 % 0.0 in /  0 mm
12:04 5.8 °F /  -14.6 °C 4.9 °F /  -15.1 °C 1029.0 in /  34841.9 hPa SE 3.4 mph /  5.5 km/h 6.4 mph /  10.3 km/h 94 % 0.0 in /  0 mm
12:09 6.1 °F /  -14.4 °C 5.2 °F /  -14.9 °C 1029.0 in /  34841.9 hPa SSE 3.4 mph /  5.5 km/h 6.4 mph /  10.3 km/h 94 % 0.0 in /  0 mm
12:14 6.4 °F /  -14.2 °C 5.3 °F /  -14.8 °C 1029.0 in /  34841.9 hPa South 3.2 mph /  5.1 km/h 5.0 mph /  8 km/h 93 % 0.0 in /  0 mm
12:19 6.6 °F /  -14.1 °C 5.6 °F /  -14.7 °C 1029.0 in /  34841.9 hPa South 3.2 mph /  5.1 km/h 5.8 mph /  9.3 km/h 93 % 0.0 in /  0 mm
12:24 6.8 °F /  -14 °C 5.7 °F /  -14.6 °C 1029.0 in /  34841.9 hPa SSE 4.2 mph /  6.8 km/h 6.1 mph /  9.8 km/h 93 % 0.0 in /  0 mm
12:29 7.0 °F /  -13.9 °C 5.8 °F /  -14.6 °C 1029.0 in /  34841.9 hPa SSE 4.3 mph /  6.9 km/h 6.4 mph /  10.3 km/h 92 % 0.0 in /  0 mm
12:34 7.3 °F /  -13.7 °C 6.1 °F /  -14.4 °C 1029.0 in /  34841.9 hPa SSE 4.3 mph /  6.9 km/h 6.4 mph /  10.3 km/h 92 % 0.0 in /  0 mm
12:39 7.4 °F /  -13.7 °C 6.2 °F /  -14.3 °C 1029.0 in /  34841.9 hPa SSE 3.7 mph /  6 km/h 6.1 mph /  9.8 km/h 92 % 0.0 in /  0 mm
12:44 7.7 °F /  -13.5 °C 6.3 °F /  -14.3 °C 1028.0 in /  34808.1 hPa South 2.6 mph /  4.2 km/h 4.3 mph /  6.9 km/h 91 % 0.0 in /  0 mm
12:49 7.8 °F /  -13.4 °C 6.3 °F /  -14.3 °C 1028.0 in /  34808.1 hPa SSE 2.1 mph /  3.4 km/h 4.3 mph /  6.9 km/h 90 % 0.0 in /  0 mm
12:54 7.9 °F /  -13.4 °C 6.3 °F /  -14.3 °C 1028.0 in /  34808.1 hPa SSE 2.6 mph /  4.2 km/h 6.1 mph /  9.8 km/h 90 % 0.0 in /  0 mm
12:59 8.2 °F /  -13.2 °C 6.3 °F /  -14.3 °C 1028.0 in /  34808.1 hPa South 3.9 mph /  6.3 km/h 6.1 mph /  9.8 km/h 88 % 0.0 in /  0 mm
13:04 8.3 °F /  -13.2 °C 6.3 °F /  -14.3 °C 1028.0 in /  34808.1 hPa SSW 2.9 mph /  4.7 km/h 5.5 mph /  8.9 km/h 87 % 0.0 in /  0 mm
13:09 8.4 °F /  -13.1 °C 6.3 °F /  -14.3 °C 1028.0 in /  34808.1 hPa SSE 2.6 mph /  4.2 km/h 5.8 mph /  9.3 km/h 87 % 0.0 in /  0 mm
13:14 8.5 °F /  -13.1 °C 6.3 °F /  -14.3 °C 1028.0 in /  34808.1 hPa SSE 3.9 mph /  6.3 km/h 6.1 mph /  9.8 km/h 86 % 0.0 in /  0 mm
13:19 8.5 °F /  -13.1 °C 6.1 °F /  -14.4 °C 1028.0 in /  34808.1 hPa SSE 4.0 mph /  6.4 km/h 6.1 mph /  9.8 km/h 85 % 0.0 in /  0 mm
13:24 8.5 °F /  -13.1 °C 5.9 °F /  -14.5 °C 1028.0 in /  34808.1 hPa SSE 3.5 mph /  5.6 km/h 5.0 mph /  8 km/h 84 % 0.0 in /  0 mm
13:29 8.6 °F /  -13 °C 5.9 °F /  -14.5 °C 1028.0 in /  34808.1 hPa South 2.9 mph /  4.7 km/h 5.8 mph /  9.3 km/h 83 % 0.0 in /  0 mm
13:34 8.6 °F /  -13 °C 5.7 °F /  -14.6 °C 1028.0 in /  34808.1 hPa SSW 2.6 mph /  4.2 km/h 5.8 mph /  9.3 km/h 82 % 0.0 in /  0 mm
13:39 8.6 °F /  -13 °C 5.5 °F /  -14.7 °C 1028.0 in /  34808.1 hPa SSW 2.9 mph /  4.7 km/h 5.5 mph /  8.9 km/h 81 % 0.0 in /  0 mm
13:44 8.5 °F /  -13.1 °C 5.2 °F /  -14.9 °C 1028.0 in /  34808.1 hPa SSW 2.7 mph /  4.3 km/h 5.5 mph /  8.9 km/h 80 % 0.0 in /  0 mm
13:49 8.5 °F /  -13.1 °C 5.1 °F /  -14.9 °C 1028.0 in /  34808.1 hPa SSW 3.1 mph /  5 km/h 7.2 mph /  11.6 km/h 79 % 0.0 in /  0 mm
13:54 8.6 °F /  -13 °C 5.0 °F /  -15 °C 1028.0 in /  34808.1 hPa South 4.2 mph /  6.8 km/h 7.2 mph /  11.6 km/h 78 % 0.0 in /  0 mm
13:59 8.7 °F /  -12.9 °C 4.9 °F /  -15.1 °C 1028.0 in /  34808.1 hPa SSE 4.2 mph /  6.8 km/h 5.8 mph /  9.3 km/h 77 % 0.0 in /  0 mm
14:04 8.8 °F /  -12.9 °C 4.8 °F /  -15.1 °C 1028.0 in /  34808.1 hPa SSE 3.9 mph /  6.3 km/h 8.7 mph /  14 km/h 76 % 0.0 in /  0 mm
14:14 9.0 °F /  -12.8 °C 4.6 °F /  -15.2 °C 1027.0 in /  34774.2 hPa SSE 5.0 mph /  8 km/h 7.6 mph /  12.2 km/h 74 % 0.0 in /  0 mm
14:19 9.1 °F /  -12.7 °C 4.7 °F /  -15.2 °C 1027.0 in /  34774.2 hPa South 3.9 mph /  6.3 km/h 5.5 mph /  8.9 km/h 74 % 0.0 in /  0 mm
14:24 9.1 °F /  -12.7 °C 4.5 °F /  -15.3 °C 1027.0 in /  34774.2 hPa SSE 2.9 mph /  4.7 km/h 5.5 mph /  8.9 km/h 73 % 0.0 in /  0 mm
14:29 9.3 °F /  -12.6 °C 4.5 °F /  -15.3 °C 1027.0 in /  34774.2 hPa SSE 2.1 mph /  3.4 km/h 5.5 mph /  8.9 km/h 72 % 0.0 in /  0 mm
14:34 9.3 °F /  -12.6 °C 4.5 °F /  -15.3 °C 1027.0 in /  34774.2 hPa SSE 3.2 mph /  5.1 km/h 6.4 mph /  10.3 km/h 72 % 0.0 in /  0 mm
14:39 9.3 °F /  -12.6 °C 4.3 °F /  -15.4 °C 1027.0 in /  34774.2 hPa SSE 3.9 mph /  6.3 km/h 6.4 mph /  10.3 km/h 71 % 0.0 in /  0 mm
14:49 9.4 °F /  -12.6 °C 4.0 °F /  -15.6 °C 1028.0 in /  34808.1 hPa SE 2.6 mph /  4.2 km/h 5.0 mph /  8 km/h 69 % 0.0 in /  0 mm
14:54 9.5 °F /  -12.5 °C 4.1 °F /  -15.5 °C 1028.0 in /  34808.1 hPa SE 3.4 mph /  5.5 km/h 5.8 mph /  9.3 km/h 69 % 0.0 in /  0 mm
14:59 9.7 °F /  -12.4 °C 4.3 °F /  -15.4 °C 1027.0 in /  34774.2 hPa SSE 4.0 mph /  6.4 km/h 6.9 mph /  11.1 km/h 69 % 0.0 in /  0 mm
15:04 9.8 °F /  -12.3 °C 4.2 °F /  -15.4 °C 1027.0 in /  34774.2 hPa South 3.4 mph /  5.5 km/h 6.9 mph /  11.1 km/h 68 % 0.0 in /  0 mm
15:09 9.7 °F /  -12.4 °C 3.9 °F /  -15.6 °C 1027.0 in /  34774.2 hPa South 1.8 mph /  2.9 km/h 4.7 mph /  7.6 km/h 67 % 0.0 in /  0 mm
15:14 9.6 °F /  -12.4 °C 3.8 °F /  -15.7 °C 1027.0 in /  34774.2 hPa SSW 1.0 mph /  1.6 km/h 4.7 mph /  7.6 km/h 67 % 0.0 in /  0 mm
15:24 9.5 °F /  -12.5 °C 3.2 °F /  -16 °C 1027.0 in /  34774.2 hPa SSW 1.1 mph /  1.8 km/h 5.0 mph /  8 km/h 65 % 0.0 in /  0 mm
15:29 9.2 °F /  -12.7 °C 2.9 °F /  -16.2 °C 1027.0 in /  34774.2 hPa SSW 2.1 mph /  3.4 km/h 6.4 mph /  10.3 km/h 65 % 0.0 in /  0 mm
15:39 8.7 °F /  -12.9 °C 2.3 °F /  -16.5 °C 1027.0 in /  34774.2 hPa South 4.3 mph /  6.9 km/h 7.6 mph /  12.2 km/h 64 % 0.0 in /  0 mm
15:44 8.3 °F /  -13.2 °C 1.7 °F /  -16.8 °C 1027.0 in /  34774.2 hPa South 4.2 mph /  6.8 km/h 7.6 mph /  12.2 km/h 63 % 0.0 in /  0 mm
15:54 7.4 °F /  -13.7 °C 0.8 °F /  -17.3 °C 1027.0 in /  34774.2 hPa SSW 4.3 mph /  6.9 km/h 6.9 mph /  11.1 km/h 63 % 0.0 in /  0 mm
15:59 6.9 °F /  -13.9 °C 0.3 °F /  -17.6 °C 1027.0 in /  34774.2 hPa SW 3.7 mph /  6 km/h 6.4 mph /  10.3 km/h 63 % 0.0 in /  0 mm
16:04 6.5 °F /  -14.2 °C -0.1 °F /  -17.8 °C 1027.0 in /  34774.2 hPa NW 2.1 mph /  3.4 km/h 5.0 mph /  8 km/h 63 % 0.0 in /  0 mm
16:09 6.0 °F /  -14.4 °C -0.5 °F /  -18.1 °C 1027.0 in /  34774.2 hPa NW 1.9 mph /  3.1 km/h 5.5 mph /  8.9 km/h 63 % 0.0 in /  0 mm
16:14 5.6 °F /  -14.7 °C -0.9 °F /  -18.3 °C 1027.0 in /  34774.2 hPa NW 2.4 mph /  3.9 km/h 5.5 mph /  8.9 km/h 63 % 0.0 in /  0 mm
16:24 5.0 °F /  -15 °C -1.3 °F /  -18.5 °C 1027.0 in /  34774.2 hPa NW 3.1 mph /  5 km/h 6.9 mph /  11.1 km/h 64 % 0.0 in /  0 mm
16:29 4.8 °F /  -15.1 °C -1.2 °F /  -18.4 °C 1027.0 in /  34774.2 hPa NW 3.9 mph /  6.3 km/h 6.9 mph /  11.1 km/h 65 % 0.0 in /  0 mm
16:34 4.7 °F /  -15.2 °C -1.3 °F /  -18.5 °C 1027.0 in /  34774.2 hPa NW 2.3 mph /  3.7 km/h 4.7 mph /  7.6 km/h 65 % 0.0 in /  0 mm
16:39 4.3 °F /  -15.4 °C -1.5 °F /  -18.6 °C 1027.0 in /  34774.2 hPa NW 1.6 mph /  2.6 km/h 4.3 mph /  6.9 km/h 66 % 0.0 in /  0 mm
16:49 4.0 °F /  -15.6 °C -1.8 °F /  -18.8 °C 1027.0 in /  34774.2 hPa NW 0.5 mph /  0.8 km/h 4.0 mph /  6.4 km/h 66 % 0.0 in /  0 mm
16:54 3.7 °F /  -15.7 °C -1.9 °F /  -18.8 °C 1027.0 in /  34774.2 hPa NW 0.5 mph /  0.8 km/h 4.3 mph /  6.9 km/h 67 % 0.0 in /  0 mm
16:59 3.6 °F /  -15.8 °C -1.8 °F /  -18.8 °C 1028.0 in /  34808.1 hPa NW 0.8 mph /  1.3 km/h 4.3 mph /  6.9 km/h 68 % 0.0 in /  0 mm
17:04 3.4 °F /  -15.9 °C -1.9 °F /  -18.8 °C 1028.0 in /  34808.1 hPa NW 0.5 mph /  0.8 km/h 4.3 mph /  6.9 km/h 68 % 0.0 in /  0 mm
17:14 3.0 °F /  -16.1 °C -2.1 °F /  -18.9 °C 1028.0 in /  34808.1 hPa Calm     69 % 0.0 in /  0 mm
17:19 2.9 °F /  -16.2 °C -2.1 °F /  -18.9 °C 1028.0 in /  34808.1 hPa Calm   3.2 mph /  5.1 km/h 70 % 0.0 in /  0 mm
17:24 2.7 °F /  -16.3 °C -2.2 °F /  -19 °C 1028.0 in /  34808.1 hPa NW 0.5 mph /  0.8 km/h 4.3 mph /  6.9 km/h 70 % 0.0 in /  0 mm
17:29 2.6 °F /  -16.3 °C -2.1 °F /  -18.9 °C 1028.0 in /  34808.1 hPa WNW 0.5 mph /  0.8 km/h 4.3 mph /  6.9 km/h 71 % 0.0 in /  0 mm
17:34 2.4 °F /  -16.4 °C -2.3 °F /  -19.1 °C 1028.0 in /  34808.1 hPa WSW 0.3 mph /  0.5 km/h 3.5 mph /  5.6 km/h 71 % 0.0 in /  0 mm
17:39 2.3 °F /  -16.5 °C -2.4 °F /  -19.1 °C 1028.0 in /  34808.1 hPa WSW 0.3 mph /  0.5 km/h 3.5 mph /  5.6 km/h 71 % 0.0 in /  0 mm
17:44 2.1 °F /  -16.6 °C -2.4 °F /  -19.1 °C 1027.0 in /  34774.2 hPa NW 0.2 mph /  0.3 km/h 2.1 mph /  3.4 km/h 72 % 0.0 in /  0 mm
17:49 2.1 °F /  -16.6 °C -2.4 °F /  -19.1 °C 1027.0 in /  34774.2 hPa Calm     72 % 0.0 in /  0 mm
17:54 1.9 °F /  -16.7 °C -2.4 °F /  -19.1 °C 1027.0 in /  34774.2 hPa Calm     73 % 0.0 in /  0 mm
17:59 1.8 °F /  -16.8 °C -2.6 °F /  -19.2 °C 1027.0 in /  34774.2 hPa Calm     73 % 0.0 in /  0 mm
18:04 1.7 °F /  -16.8 °C -2.6 °F /  -19.2 °C 1027.0 in /  34774.2 hPa Calm     73 % 0.0 in /  0 mm
18:19 1.3 °F /  -17.1 °C -2.8 °F /  -19.3 °C 1028.0 in /  34808.1 hPa Calm     74 % 0.0 in /  0 mm
18:29 1.1 °F /  -17.2 °C -2.8 °F /  -19.3 °C 1028.0 in /  34808.1 hPa Calm     75 % 0.0 in /  0 mm
18:34 1.0 °F /  -17.2 °C -2.9 °F /  -19.4 °C 1028.0 in /  34808.1 hPa Calm     75 % 0.0 in /  0 mm
18:39 0.9 °F /  -17.3 °C -3.1 °F /  -19.5 °C 1028.0 in /  34808.1 hPa Calm     75 % 0.0 in /  0 mm
18:44 0.8 °F /  -17.3 °C -2.9 °F /  -19.4 °C 1028.0 in /  34808.1 hPa Calm     76 % 0.0 in /  0 mm
18:49 0.7 °F /  -17.4 °C -3.1 °F /  -19.5 °C 1028.0 in /  34808.1 hPa Calm     76 % 0.0 in /  0 mm
18:54 0.7 °F /  -17.4 °C -3.1 °F /  -19.5 °C 1028.0 in /  34808.1 hPa Calm     76 % 0.0 in /  0 mm
18:59 0.6 °F /  -17.4 °C -3.2 °F /  -19.6 °C 1028.0 in /  34808.1 hPa Calm     76 % 0.0 in /  0 mm
19:04 0.5 °F /  -17.5 °C -3.1 °F /  -19.5 °C 1028.0 in /  34808.1 hPa Calm     77 % 0.0 in /  0 mm
19:24 0.3 °F /  -17.6 °C -3.3 °F /  -19.6 °C 1028.0 in /  34808.1 hPa Calm     77 % 0.0 in /  0 mm
19:29 0.2 °F /  -17.7 °C -3.2 °F /  -19.6 °C 1027.0 in /  34774.2 hPa Calm     78 % 0.0 in /  0 mm
19:34 0.2 °F /  -17.7 °C -3.2 °F /  -19.6 °C 1027.0 in /  34774.2 hPa Calm     78 % 0.0 in /  0 mm
19:39 0.1 °F /  -17.7 °C -3.3 °F /  -19.6 °C 1027.0 in /  34774.2 hPa Calm     78 % 0.0 in /  0 mm
19:44 0.0 °F /  -17.8 °C -3.4 °F /  -19.7 °C 1027.0 in /  34774.2 hPa Calm     78 % 0.0 in /  0 mm
19:49 0.0 °F /  -17.8 °C -3.4 °F /  -19.7 °C 1027.0 in /  34774.2 hPa Calm     78 % 0.0 in /  0 mm
19:54 -0.1 °F /  -17.8 °C -3.3 °F /  -19.6 °C 1027.0 in /  34774.2 hPa Calm     79 % 0.0 in /  0 mm
20:04 -0.2 °F /  -17.9 °C -3.4 °F /  -19.7 °C 1027.0 in /  34774.2 hPa Calm     79 % 0.0 in /  0 mm
20:09 -0.3 °F /  -17.9 °C -3.5 °F /  -19.7 °C 1027.0 in /  34774.2 hPa Calm     79 % 0.0 in /  0 mm
20:19 -0.4 °F /  -18 °C -3.6 °F /  -19.8 °C 1027.0 in /  34774.2 hPa Calm     79 % 0.0 in /  0 mm
20:24 -0.5 °F /  -18.1 °C -3.7 °F /  -19.8 °C 1027.0 in /  34774.2 hPa Calm     79 % 0.0 in /  0 mm
20:29 -0.5 °F /  -18.1 °C -3.5 °F /  -19.7 °C 1026.0 in /  34740.4 hPa Calm     80 % 0.0 in /  0 mm
20:34 -0.6 °F /  -18.1 °C -3.6 °F /  -19.8 °C 1026.0 in /  34740.4 hPa Calm     80 % 0.0 in /  0 mm
20:39 -0.6 °F /  -18.1 °C -3.6 °F /  -19.8 °C 1026.0 in /  34740.4 hPa Calm     80 % 0.0 in /  0 mm
20:44 -0.7 °F /  -18.2 °C -3.7 °F /  -19.8 °C 1027.0 in /  34774.2 hPa Calm     80 % 0.0 in /  0 mm
20:49 -0.8 °F /  -18.2 °C -3.8 °F /  -19.9 °C 1027.0 in /  34774.2 hPa Calm     80 % 0.0 in /  0 mm
20:54 -0.8 °F /  -18.2 °C -3.8 °F /  -19.9 °C 1027.0 in /  34774.2 hPa Calm     80 % 0.0 in /  0 mm
20:59 -0.9 °F /  -18.3 °C -3.9 °F /  -19.9 °C 1026.0 in /  34740.4 hPa Calm     80 % 0.0 in /  0 mm
21:04 -0.9 °F /  -18.3 °C -3.8 °F /  -19.9 °C 1026.0 in /  34740.4 hPa Calm     81 % 0.0 in /  0 mm
21:19 -1.1 °F /  -18.4 °C -3.8 °F /  -19.9 °C 1027.0 in /  34774.2 hPa Calm     82 % 0.0 in /  0 mm
21:24 -1.1 °F /  -18.4 °C -3.8 °F /  -19.9 °C 1027.0 in /  34774.2 hPa Calm     82 % 0.0 in /  0 mm
21:34 -1.2 °F /  -18.4 °C -3.9 °F /  -19.9 °C 1027.0 in /  34774.2 hPa Calm     82 % 0.0 in /  0 mm
21:39 -1.3 °F /  -18.5 °C -4.0 °F /  -20 °C 1027.0 in /  34774.2 hPa Calm     82 % 0.0 in /  0 mm
21:44 -1.3 °F /  -18.5 °C -3.8 °F /  -19.9 °C 1027.0 in /  34774.2 hPa Calm     83 % 0.0 in /  0 mm
21:49 -1.3 °F /  -18.5 °C -3.8 °F /  -19.9 °C 1027.0 in /  34774.2 hPa Calm     83 % 0.0 in /  0 mm
21:54 -1.4 °F /  -18.6 °C -3.9 °F /  -19.9 °C 1027.0 in /  34774.2 hPa Calm     83 % 0.0 in /  0 mm
21:59 -1.4 °F /  -18.6 °C -3.9 °F /  -19.9 °C 1027.0 in /  34774.2 hPa Calm     83 % 0.0 in /  0 mm
22:04 -1.4 °F /  -18.6 °C -3.9 °F /  -19.9 °C 1027.0 in /  34774.2 hPa Calm     83 % 0.0 in /  0 mm
22:05 -1.4 °F /  -18.6 °C -3.9 °F /  -19.9 °C 1027.0 in /  34774.2 hPa Calm     83 % 0.0 in /  0 mm
22:10 -1.4 °F /  -18.6 °C -3.9 °F /  -19.9 °C 1027.0 in /  34774.2 hPa Calm     83 % 0.0 in /  0 mm
22:15 -1.4 °F /  -18.6 °C -3.8 °F /  -19.9 °C 1027.0 in /  34774.2 hPa Calm     84 % 0.0 in /  0 mm
22:20 -1.5 °F /  -18.6 °C -3.8 °F /  -19.9 °C 1027.0 in /  34774.2 hPa Calm     84 % 0.0 in /  0 mm
22:25 -1.5 °F /  -18.6 °C -3.8 °F /  -19.9 °C 1027.0 in /  34774.2 hPa Calm     84 % 0.0 in /  0 mm
22:30 -1.6 °F /  -18.7 °C -3.9 °F /  -19.9 °C 1027.0 in /  34774.2 hPa Calm     84 % 0.0 in /  0 mm
22:35 -1.6 °F /  -18.7 °C -3.9 °F /  -19.9 °C 1027.0 in /  34774.2 hPa Calm     84 % 0.0 in /  0 mm
22:40 -1.6 °F /  -18.7 °C -3.9 °F /  -19.9 °C 1027.0 in /  34774.2 hPa Calm     84 % 0.0 in /  0 mm
22:45 -1.7 °F /  -18.7 °C -4.1 °F /  -20.1 °C 1027.0 in /  34774.2 hPa Calm     84 % 0.0 in /  0 mm
22:50 -1.7 °F /  -18.7 °C -3.9 °F /  -19.9 °C 1027.0 in /  34774.2 hPa Calm     85 % 0.0 in /  0 mm
22:55 -1.8 °F /  -18.8 °C -4.0 °F /  -20 °C 1026.0 in /  34740.4 hPa Calm     85 % 0.0 in /  0 mm
23:00 -1.9 °F /  -18.8 °C -4.1 °F /  -20.1 °C 1026.0 in /  34740.4 hPa Calm     85 % 0.0 in /  0 mm
23:05 -1.9 °F /  -18.8 °C -4.1 °F /  -20.1 °C 1026.0 in /  34740.4 hPa Calm     85 % 0.0 in /  0 mm
23:10 -1.9 °F /  -18.8 °C -4.1 °F /  -20.1 °C 1027.0 in /  34774.2 hPa Calm     85 % 0.0 in /  0 mm
23:15 -1.9 °F /  -18.8 °C -4.1 °F /  -20.1 °C 1027.0 in /  34774.2 hPa Calm     85 % 0.0 in /  0 mm
23:20 -2.0 °F /  -18.9 °C -4.1 °F /  -20.1 °C 1027.0 in /  34774.2 hPa Calm     86 % 0.0 in /  0 mm
23:25 -2.0 °F /  -18.9 °C -4.1 °F /  -20.1 °C 1026.0 in /  34740.4 hPa Calm     86 % 0.0 in /  0 mm
23:31 -2.0 °F /  -18.9 °C -4.1 °F /  -20.1 °C 1026.0 in /  34740.4 hPa Calm     86 % 0.0 in /  0 mm
23:35 -2.1 °F /  -18.9 °C -4.1 °F /  -20.1 °C 1026.0 in /  34740.4 hPa Calm     86 % 0.0 in /  0 mm
23:40 -2.1 °F /  -18.9 °C -4.1 °F /  -20.1 °C 1026.0 in /  34740.4 hPa Calm     86 % 0.0 in /  0 mm
23:45 -2.1 °F /  -18.9 °C -4.1 °F /  -20.1 °C 1026.0 in /  34740.4 hPa Calm     86 % 0.0 in /  0 mm
23:50 -2.1 °F /  -18.9 °C -4.1 °F /  -20.1 °C 1026.0 in /  34740.4 hPa West 0.3 mph /  0.5 km/h 4.0 mph /  6.4 km/h 86 % 0.0 in /  0 mm
23:55 -2.1 °F /  -18.9 °C -4.1 °F /  -20.1 °C 1026.0 in /  34740.4 hPa West 0.8 mph /  1.3 km/h 4.0 mph /  6.4 km/h 86 % 0.0 in /  0 mm
Vremenska postaja Senovo
Podatki zbrani iz Weather Underground - 2.75 mb

Script developed by  Jim McMurry - jmcmurry@mwt.net Adapted for the template by  Wim van der Kuil - Leuven-Template.eu

Vremenski podatki so objavljeni na:

European Weather Network

WeatherCloud

Weather Underground

AWEKAS

HAMweather, WeatherForYou, PWS Weather

MapView

Geostik

Slovenia weather network

Oprema, ki se uporablja:

Vremenski program
Cumulus

Vremenski server
Asus

Cumulus

Asus